Time;durP1;ratioP1;P1;durP2;ratioP2;P2;SDS_P1;SDS_P2;PMS_P1;PMS_P2;Temp;Humidity;BMP_temperature;BMP_pressure;BME280_temperature;BME280_humidity;BME280_pressure;Samples;Min_cycle;Max_cycle;Signal;HPM_P1;HPM_P2
2023/05/23 00:02:07;;;;;;;13.52;7.68;;;;;;;14.97;100.00;101766.16;4970785;28;20030;-74
2023/05/23 00:04:34;;;;;;;15.15;8.35;;;;;;;14.93;100.00;101768.41;4953579;28;20078;-73
2023/05/23 00:07:00;;;;;;;15.43;8.52;;;;;;;14.85;100.00;101760.53;4970630;28;20027;-73
2023/05/23 00:09:25;;;;;;;12.98;7.32;;;;;;;14.89;100.00;101765.31;4970623;28;20038;-73
2023/05/23 00:11:51;;;;;;;14.45;7.68;;;;;;;14.83;100.00;101766.13;4970630;28;20034;-72
2023/05/23 00:14:16;;;;;;;15.30;8.57;;;;;;;14.82;100.00;101753.72;4970432;28;20045;-71
2023/05/23 00:16:43;;;;;;;14.98;8.20;;;;;;;14.87;100.00;101770.06;4970720;28;20546;-71
2023/05/23 00:19:13;;;;;;;15.13;8.02;;;;;;;14.85;100.00;101772.09;4970620;28;20033;-71
2023/05/23 00:21:40;;;;;;;17.20;7.80;;;;;;;14.83;100.00;101768.00;4956443;28;20034;-71
2023/05/23 00:24:06;;;;;;;13.73;8.02;;;;;;;14.81;100.00;101773.56;4988851;28;20034;-71
2023/05/23 00:26:32;;;;;;;14.30;7.85;;;;;;;14.82;100.00;101769.84;4989044;28;20042;-71
2023/05/23 00:28:58;;;;;;;12.80;7.85;;;;;;;14.83;100.00;101770.69;4970661;28;20031;-71
2023/05/23 00:31:23;;;;;;;14.55;7.38;;;;;;;14.80;100.00;101776.44;4970371;28;20062;-71
2023/05/23 00:33:48;;;;;;;14.68;7.88;;;;;;;14.80;100.00;101779.13;4970292;28;20038;-71
2023/05/23 00:36:14;;;;;;;12.60;6.68;;;;;;;14.78;100.00;101778.50;4970347;28;20084;-71
2023/05/23 00:38:39;;;;;;;13.50;7.75;;;;;;;14.76;100.00;101786.75;4936805;28;20069;-71
2023/05/23 00:41:05;;;;;;;12.88;7.50;;;;;;;14.74;100.00;101799.56;4970200;28;20074;-71
2023/05/23 00:43:31;;;;;;;14.93;8.48;;;;;;;14.76;100.00;101789.44;4970382;28;20474;-71
2023/05/23 00:45:57;;;;;;;14.75;7.35;;;;;;;14.74;100.00;101793.38;4973378;28;20105;-71
2023/05/23 00:48:24;;;;;;;14.50;8.25;;;;;;;14.67;100.00;101786.13;4974129;28;20106;-71
2023/05/23 00:50:50;;;;;;;15.85;7.38;;;;;;;14.67;100.00;101783.44;4980789;28;20042;-71
2023/05/23 00:53:16;;;;;;;13.50;8.70;;;;;;;14.67;100.00;101793.31;4992637;28;20030;-71
2023/05/23 00:55:42;;;;;;;14.43;7.45;;;;;;;14.66;100.00;101791.69;4992921;28;20470;-71
2023/05/23 00:58:08;;;;;;;17.08;7.25;;;;;;;14.62;100.00;101785.06;4975092;28;20062;-71
2023/05/23 01:00:34;;;;;;;13.13;7.35;;;;;;;14.59;100.00;101791.66;4973904;28;20042;-71
2023/05/23 01:03:00;;;;;;;14.77;8.18;;;;;;;14.60;100.00;101798.69;4974554;28;20310;-71
2023/05/23 01:05:25;;;;;;;16.05;7.63;;;;;;;14.61;100.00;101800.31;4991849;28;20081;-71
2023/05/23 01:07:51;;;;;;;16.52;8.40;;;;;;;14.56;100.00;101789.34;4992283;28;20477;-71
2023/05/23 01:10:28;;;;;;;15.88;6.93;;;;;;;14.59;100.00;101796.19;4992385;28;20117;-71
2023/05/23 01:12:56;;;;;;;16.27;6.60;;;;;;;14.56;100.00;101800.09;4988268;28;20097;-71
2023/05/23 01:15:30;;;;;;;15.13;7.68;;;;;;;14.55;100.00;101797.63;4977562;28;20501;-71
2023/05/23 01:18:02;;;;;;;15.20;7.10;;;;;;;14.55;100.00;101797.63;4992226;28;20038;-71
2023/05/23 01:20:33;;;;;;;13.80;7.07;;;;;;;14.52;100.00;101800.69;4964397;28;20023;-71
2023/05/23 01:23:01;;;;;;;17.83;8.50;;;;;;;14.50;100.00;101797.38;4973677;28;20031;-71
2023/05/23 01:26:04;;;;;;;14.25;6.65;;;;;;;14.48;100.00;101805.59;4973546;28;20039;-71
2023/05/23 01:28:36;;;;;;;19.45;7.35;;;;;;;14.46;100.00;101808.50;4974219;28;20034;-71
2023/05/23 01:31:05;;;;;;;18.23;8.20;;;;;;;14.45;100.00;101806.00;4992048;28;20038;-71
2023/05/23 01:33:32;;;;;;;18.42;9.05;;;;;;;14.42;100.00;101811.78;4991833;28;20029;-71
2023/05/23 01:36:02;;;;;;;17.13;7.38;;;;;;;14.40;100.00;101813.81;4991251;28;20493;-71
2023/05/23 01:38:27;;;;;;;15.82;8.88;;;;;;;14.40;100.00;101805.78;4991960;28;20121;-71
2023/05/23 01:40:53;;;;;;;19.50;8.48;;;;;;;14.36;100.00;101805.34;4991782;28;20109;-71
2023/05/23 01:43:19;;;;;;;21.13;9.43;;;;;;;14.35;100.00;101811.72;4992020;28;20027;-71
2023/05/23 01:45:45;;;;;;;23.40;10.05;;;;;;;14.29;100.00;101815.22;4991798;28;20041;-71
2023/05/23 01:48:12;;;;;;;17.73;8.73;;;;;;;14.21;100.00;101812.69;4960126;28;20031;-71
2023/05/23 01:50:37;;;;;;;27.38;11.18;;;;;;;14.19;100.00;101820.91;4973165;28;20067;-71
2023/05/23 01:53:04;;;;;;;20.20;8.60;;;;;;;14.18;100.00;101823.81;4972882;28;20115;-71
2023/05/23 01:55:30;;;;;;;23.65;9.60;;;;;;;14.16;100.00;101824.00;4972759;28;20445;-71
2023/05/23 01:57:56;;;;;;;19.20;9.27;;;;;;;14.12;100.00;101820.06;4985500;28;20065;-71
2023/05/23 02:00:23;;;;;;;17.73;8.35;;;;;;;14.12;100.00;101829.94;4989021;28;20080;-71
2023/05/23 02:02:48;;;;;;;14.88;7.60;;;;;;;14.10;100.00;101824.81;4989969;28;20030;-71
2023/05/23 02:05:13;;;;;;;13.27;7.93;;;;;;;14.10;100.00;101840.06;4991349;28;20038;-71
2023/05/23 02:07:39;;;;;;;19.27;9.68;;;;;;;14.07;100.00;101830.56;4991446;28;20062;-72
2023/05/23 02:10:07;;;;;;;18.67;8.23;;;;;;;14.03;100.00;101837.31;4987764;28;20026;-71
2023/05/23 02:12:33;;;;;;;18.20;8.27;;;;;;;14.01;100.00;101836.69;4990930;28;20053;-71
2023/05/23 02:14:58;;;;;;;18.00;7.75;;;;;;;13.96;100.00;101836.44;4991262;28;20030;-71
2023/05/23 02:17:23;;;;;;;17.90;8.05;;;;;;;14.00;100.00;101841.22;4991089;28;20034;-71
2023/05/23 02:19:49;;;;;;;18.75;8.80;;;;;;;13.95;100.00;101840.16;4985427;28;20148;-71
2023/05/23 02:22:15;;;;;;;15.73;7.70;;;;;;;13.93;100.00;101850.25;4972507;28;20037;-71
2023/05/23 02:24:40;;;;;;;18.77;9.60;;;;;;;13.88;100.00;101844.63;4972465;28;20568;-71
2023/05/23 02:27:05;;;;;;;18.15;9.38;;;;;;;13.88;100.00;101848.13;4972335;28;20038;-71
2023/05/23 02:29:31;;;;;;;20.20;8.40;;;;;;;13.89;100.00;101849.00;4972085;28;20398;-71
2023/05/23 02:31:57;;;;;;;22.52;10.23;;;;;;;13.86;100.00;101844.00;4972385;28;20041;-71
2023/05/23 02:34:22;;;;;;;17.80;9.10;;;;;;;13.82;100.00;101840.88;4972184;28;20155;-71
2023/05/23 02:36:47;;;;;;;19.05;8.63;;;;;;;13.79;100.00;101842.09;4972180;28;20031;-71
2023/05/23 02:39:13;;;;;;;29.52;12.50;;;;;;;13.74;100.00;101835.66;4964645;28;20064;-71
2023/05/23 02:41:39;;;;;;;17.63;9.43;;;;;;;13.74;100.00;101836.47;4990573;28;20037;-71
2023/05/23 02:44:04;;;;;;;16.90;8.82;;;;;;;13.75;100.00;101840.84;4990710;28;20437;-71
2023/05/23 02:46:30;;;;;;;19.10;7.97;;;;;;;13.73;100.00;101837.50;4984537;28;20793;-71
2023/05/23 02:48:55;;;;;;;14.30;7.57;;;;;;;13.78;100.00;101844.97;4954438;28;20034;-71
2023/05/23 02:51:20;;;;;;;16.10;8.23;;;;;;;13.75;100.00;101838.16;4971941;28;20069;-71
2023/05/23 02:53:46;;;;;;;15.02;7.22;;;;;;;13.76;100.00;101841.66;4954559;28;20536;-71
2023/05/23 02:56:12;;;;;;;15.27;7.85;;;;;;;13.74;100.00;101844.53;4971604;28;20097;-71
2023/05/23 02:58:38;;;;;;;17.00;7.60;;;;;;;13.72;100.00;101843.06;4971624;28;20057;-72
2023/05/23 03:01:04;;;;;;;16.38;7.78;;;;;;;13.74;100.00;101838.34;4990436;28;20022;-73
2023/05/23 03:03:30;;;;;;;20.27;9.63;;;;;;;13.75;100.00;101840.84;4990270;28;20531;-73
2023/05/23 03:05:59;;;;;;;16.17;9.05;;;;;;;13.73;100.00;101842.06;4990108;28;20053;-72
2023/05/23 03:08:25;;;;;;;17.27;6.57;;;;;;;13.69;100.00;101838.91;4990013;28;20042;-73
2023/05/23 03:10:51;;;;;;;17.63;7.25;;;;;;;13.70;100.00;101851.31;4989983;28;20034;-73
2023/05/23 03:13:17;;;;;;;12.50;6.65;;;;;;;13.67;100.00;101837.44;4989924;28;20038;-73
2023/05/23 03:15:42;;;;;;;10.43;5.05;;;;;;;13.65;100.00;101834.13;4989983;28;20117;-73
2023/05/23 03:18:08;;;;;;;12.57;6.50;;;;;;;13.63;100.00;101838.88;4989976;28;20456;-72
2023/05/23 03:20:33;;;;;;;15.60;6.90;;;;;;;13.65;100.00;101845.69;4989855;28;20183;-73
2023/05/23 03:22:58;;;;;;;12.45;5.20;;;;;;;13.59;100.00;101838.41;4989674;28;20040;-73
2023/05/23 03:25:24;;;;;;;11.88;5.88;;;;;;;13.67;100.00;101846.31;4989583;28;20120;-73
2023/05/23 03:27:50;;;;;;;14.05;6.10;;;;;;;13.58;100.00;101850.16;4989707;28;20061;-73
2023/05/23 03:30:15;;;;;;;13.55;5.53;;;;;;;13.63;100.00;101863.00;4989640;28;20036;-73
2023/05/23 03:32:41;;;;;;;12.57;5.35;;;;;;;13.63;100.00;101863.00;4972068;28;20121;-73
2023/05/23 03:35:07;;;;;;;9.18;5.35;;;;;;;13.62;100.00;101864.81;4989800;28;20499;-73
2023/05/23 03:37:32;;;;;;;11.02;6.00;;;;;;;13.59;100.00;101860.66;4989725;28;21119;-73
2023/05/23 03:39:57;;;;;;;11.55;5.65;;;;;;;13.62;100.00;101861.31;4989457;28;20045;-72
2023/05/23 03:42:23;;;;;;;10.82;6.25;;;;;;;13.50;100.00;101853.78;4989520;28;20106;-73
2023/05/23 03:44:48;;;;;;;12.32;6.43;;;;;;;13.61;100.00;101859.66;4989529;28;20040;-73
2023/05/23 03:47:14;;;;;;;14.30;6.75;;;;;;;13.62;100.00;101866.69;4971757;28;20496;-73
2023/05/23 03:49:39;;;;;;;12.50;5.53;;;;;;;13.63;100.00;101863.81;4989307;28;20509;-73
2023/05/23 03:52:04;;;;;;;10.18;5.30;;;;;;;13.63;100.00;101868.34;4989149;28;20085;-72
2023/05/23 03:54:30;;;;;;;15.82;6.47;;;;;;;13.62;100.00;101870.19;4989245;28;20058;-72
2023/05/23 03:56:55;;;;;;;21.35;5.30;;;;;;;13.64;100.00;101878.88;4989180;28;20034;-73
2023/05/23 03:59:21;;;;;;;15.15;6.55;;;;;;;13.68;100.00;101882.00;4971813;28;20035;-72
2023/05/23 04:01:46;;;;;;;13.38;5.68;;;;;;;13.69;100.00;101881.81;4989383;28;20990;-73
2023/05/23 04:04:11;;;;;;;12.70;6.13;;;;;;;13.65;100.00;101877.00;4989849;28;20439;-73
2023/05/23 04:06:37;;;;;;;10.90;6.03;;;;;;;13.70;100.00;101877.25;4989057;28;20034;-73
2023/05/23 04:09:02;;;;;;;13.68;6.25;;;;;;;13.66;100.00;101876.00;4989007;28;20026;-72
2023/05/23 04:11:28;;;;;;;13.77;6.47;;;;;;;13.63;100.00;101868.34;4971500;28;20042;-73
2023/05/23 04:13:54;;;;;;;12.73;6.05;;;;;;;13.60;100.00;101861.53;4989067;28;20425;-73
2023/05/23 04:16:21;;;;;;;11.48;5.43;;;;;;;13.64;100.00;101878.03;4988979;28;20034;-73
2023/05/23 04:18:47;;;;;;;13.27;5.65;;;;;;;13.69;100.00;101881.81;4989430;28;20385;-73
2023/05/23 04:21:12;;;;;;;12.63;6.05;;;;;;;13.69;100.00;101894.38;4995285;28;20034;-73
2023/05/23 04:23:37;;;;;;;11.25;5.18;;;;;;;13.64;100.00;101883.41;4995454;28;20437;-73
2023/05/23 04:26:04;;;;;;;15.55;7.28;;;;;;;13.67;100.00;101891.88;4977948;28;20061;-73
2023/05/23 04:28:30;;;;;;;14.60;6.70;;;;;;;13.68;100.00;101893.56;4995440;28;20306;-73
2023/05/23 04:30:55;;;;;;;14.98;7.32;;;;;;;13.63;100.00;101887.94;4995616;28;20161;-73
2023/05/23 04:33:21;;;;;;;13.20;6.05;;;;;;;13.70;100.00;101893.34;4995360;28;20026;-73
2023/05/23 04:35:46;;;;;;;15.98;6.18;;;;;;;13.70;100.00;101899.56;4977680;28;20129;-73
2023/05/23 04:38:12;;;;;;;18.10;6.85;;;;;;;13.71;100.00;101906.56;4995455;28;20023;-73
2023/05/23 04:40:37;;;;;;;18.63;6.93;;;;;;;13.70;100.00;101909.44;4995043;28;20041;-73
2023/05/23 04:43:03;;;;;;;16.85;6.63;;;;;;;13.70;100.00;101909.44;4995260;28;20026;-73
2023/05/23 04:45:28;;;;;;;18.98;6.85;;;;;;;13.69;100.00;101908.63;4961640;28;20065;-72
2023/05/23 04:47:54;;;;;;;17.17;8.68;;;;;;;13.68;100.00;101915.00;4995314;28;20038;-73
2023/05/23 04:50:21;;;;;;;12.77;6.95;;;;;;;13.68;100.00;101915.00;4995468;28;20118;-71
2023/05/23 04:52:47;;;;;;;18.15;8.20;;;;;;;13.67;100.00;101926.75;4995059;28;20041;-71
2023/05/23 04:55:12;;;;;;;17.70;7.47;;;;;;;13.62;100.00;101922.97;4995224;28;20034;-71
2023/05/23 04:57:38;;;;;;;16.85;7.75;;;;;;;13.54;100.00;101924.75;4995042;28;20109;-71
2023/05/23 05:00:09;;;;;;;18.63;8.85;;;;;;;13.55;100.00;101934.47;4987916;28;20042;-71
2023/05/23 05:02:35;;;;;;;22.48;8.50;;;;;;;13.46;100.00;101919.50;4976694;28;20035;-71
2023/05/23 05:05:01;;;;;;;19.83;8.10;;;;;;;13.47;100.00;101921.19;4981869;28;20065;-71
2023/05/23 05:07:28;;;;;;;20.08;6.65;;;;;;;13.53;100.00;101931.13;4984962;28;20154;-71
2023/05/23 05:09:53;;;;;;;18.98;7.90;;;;;;;13.55;100.00;101936.31;4995414;28;20437;-71
2023/05/23 05:12:19;;;;;;;22.30;7.78;;;;;;;13.55;100.00;101939.00;4987032;28;20085;-71
2023/05/23 05:14:44;;;;;;;26.85;8.68;;;;;;;13.54;100.00;101942.69;4976618;28;20035;-71
2023/05/23 05:17:09;;;;;;;18.20;7.47;;;;;;;13.53;100.00;101951.75;4976843;28;20037;-71
2023/05/23 05:19:35;;;;;;;16.25;6.15;;;;;;;13.50;100.00;101954.81;4959071;28;20049;-71
2023/05/23 05:22:00;;;;;;;18.88;7.90;;;;;;;13.40;100.00;101951.59;4982413;28;20055;-71
2023/05/23 05:24:26;;;;;;;24.08;8.48;;;;;;;13.33;100.00;101956.88;4977518;28;20486;-71
2023/05/23 05:26:52;;;;;;;25.23;9.98;;;;;;;13.20;100.00;101944.09;4979412;28;20516;-71
2023/05/23 05:29:18;;;;;;;25.20;9.25;;;;;;;13.12;100.00;101945.03;4988660;28;20589;-71
2023/05/23 05:31:44;;;;;;;24.75;8.73;;;;;;;13.22;100.00;101957.31;4990731;28;20033;-71
2023/05/23 05:34:09;;;;;;;27.38;9.07;;;;;;;13.18;100.00;101956.03;4973666;28;20151;-71
2023/05/23 05:36:35;;;;;;;22.60;8.75;;;;;;;13.14;100.00;101961.75;4973486;28;20030;-71
2023/05/23 05:39:00;;;;;;;22.27;9.50;;;;;;;13.10;100.00;101954.31;4973539;28;20108;-71
2023/05/23 05:41:26;;;;;;;21.50;8.52;;;;;;;13.05;100.00;101951.34;4973407;28;20118;-71
2023/05/23 05:43:51;;;;;;;20.38;7.93;;;;;;;13.08;100.00;101969.72;4981803;28;20030;-71
2023/05/23 05:46:17;;;;;;;21.65;9.43;;;;;;;13.02;100.00;101978.47;4970188;28;20035;-71
2023/05/23 05:48:42;;;;;;;24.20;8.40;;;;;;;13.04;100.00;101979.13;4977549;28;20084;-71
2023/05/23 05:51:08;;;;;;;23.23;7.57;;;;;;;13.05;100.00;101978.13;4973048;28;20053;-71
2023/05/23 05:53:33;;;;;;;18.17;7.55;;;;;;;13.00;100.00;101983.22;4983842;28;20134;-71
2023/05/23 05:55:58;;;;;;;20.75;6.97;;;;;;;12.99;100.00;101979.69;4974241;28;20034;-71
2023/05/23 05:58:24;;;;;;;19.70;7.35;;;;;;;12.96;100.00;101988.09;4991526;28;20108;-71
2023/05/23 06:00:49;;;;;;;22.23;8.23;;;;;;;12.98;100.00;101993.28;4991710;28;20401;-71
2023/05/23 06:03:14;;;;;;;19.30;6.65;;;;;;;12.93;100.00;101997.31;4987698;28;20152;-71
2023/05/23 06:05:40;;;;;;;12.95;6.10;;;;;;;12.91;100.00;101988.63;4971570;28;20089;-71
2023/05/23 06:08:06;;;;;;;19.15;6.78;;;;;;;12.91;100.00;101990.47;4988958;28;20034;-71
2023/05/23 06:10:31;;;;;;;20.15;8.50;;;;;;;12.90;100.00;101999.53;4973838;28;20926;-71
2023/05/23 06:12:57;;;;;;;18.55;7.05;;;;;;;12.89;100.00;101998.72;4973950;28;20037;-72
2023/05/23 06:15:23;;;;;;;16.42;7.43;;;;;;;12.87;100.00;102003.41;4972561;28;20022;-71
2023/05/23 06:17:48;;;;;;;15.13;6.60;;;;;;;12.86;100.00;102001.78;4973871;28;20600;-71
2023/05/23 06:20:14;;;;;;;24.20;7.47;;;;;;;12.84;100.00;102014.50;4977512;28;20061;-71
2023/05/23 06:22:39;;;;;;;21.20;6.75;;;;;;;12.86;100.00;102017.84;4990586;28;20033;-71
2023/05/23 06:25:05;;;;;;;9.65;5.30;;;;;;;12.85;100.00;102007.28;4963914;28;20034;-71
2023/05/23 06:27:31;;;;;;;11.68;5.80;;;;;;;12.94;100.00;102012.38;4978180;28;20031;-71
2023/05/23 06:29:56;;;;;;;11.52;5.75;;;;;;;12.98;100.00;102018.19;4969933;28;20034;-72
2023/05/23 06:32:21;;;;;;;17.50;5.60;;;;;;;13.02;100.00;102024.88;4976095;28;20022;-72
2023/05/23 06:34:47;;;;;;;17.00;5.40;;;;;;;12.99;100.00;102024.38;4963345;28;20486;-75
2023/05/23 06:37:12;;;;;;;13.52;6.25;;;;;;;12.96;100.00;102022.91;4964885;28;20038;-75
2023/05/23 06:39:38;;;;;;;13.80;4.50;;;;;;;12.86;100.00;102027.69;4980943;28;20022;-73
2023/05/23 06:42:03;;;;;;;13.60;6.25;;;;;;;12.78;100.00;102023.25;4965269;28;20489;-70
2023/05/23 06:44:29;;;;;;;20.25;5.82;;;;;;;12.81;100.00;102025.59;4983740;28;20034;-73
2023/05/23 06:46:56;;;;;;;15.00;5.53;;;;;;;12.82;100.00;102034.44;4981794;28;20359;-74
2023/05/23 06:49:22;;;;;;;12.13;5.13;;;;;;;12.80;100.00;102036.47;4982027;28;20038;-74
2023/05/23 06:51:48;;;;;;;16.05;4.55;;;;;;;12.78;100.00;102044.66;4984349;28;20050;-74
2023/05/23 06:54:13;;;;;;;14.52;5.13;;;;;;;12.82;100.00;102053.19;4960810;28;20355;-74
2023/05/23 06:56:38;;;;;;;12.25;4.45;;;;;;;12.78;100.00;102060.72;4981442;28;20043;-73
2023/05/23 06:59:04;;;;;;;16.98;5.72;;;;;;;12.75;100.00;102055.72;4981300;28;20050;-73
2023/05/23 07:01:29;;;;;;;9.75;5.40;;;;;;;12.67;100.00;102056.63;4981164;28;20046;-73
2023/05/23 07:03:55;;;;;;;14.25;5.22;;;;;;;12.61;100.00;102049.34;4982331;28;20023;-68
2023/05/23 07:06:20;;;;;;;12.40;5.03;;;;;;;12.68;100.00;102065.50;4973493;28;20041;-73
2023/05/23 07:08:46;;;;;;;18.20;6.50;;;;;;;12.71;100.00;102083.91;4982341;28;20386;-74
2023/05/23 07:11:11;;;;;;;12.38;4.75;;;;;;;12.72;100.00;102072.16;4963005;28;20133;-75
2023/05/23 07:13:36;;;;;;;10.48;4.78;;;;;;;12.83;100.00;102081.59;4979945;28;20040;-74
2023/05/23 07:16:02;;;;;;;12.45;5.00;;;;;;;12.96;99.89;102081.00;4980389;28;20089;-74
2023/05/23 07:18:27;;;;;;;17.75;5.47;;;;;;;13.03;98.32;102077.41;4983583;28;20042;-75
2023/05/23 07:20:53;;;;;;;14.95;4.10;;;;;;;13.21;99.47;102089.63;4965964;28;20037;-75
2023/05/23 07:23:18;;;;;;;12.88;5.00;;;;;;;13.20;95.64;102079.91;4983039;28;20081;-75
2023/05/23 07:25:45;;;;;;;15.73;4.93;;;;;;;13.24;95.21;102084.72;4981095;28;20077;-75
2023/05/23 07:28:11;;;;;;;9.85;5.35;;;;;;;13.23;95.19;102085.75;4981621;28;20039;-75
2023/05/23 07:30:36;;;;;;;12.07;4.75;;;;;;;13.16;94.88;102066.06;4963705;28;20140;-76
2023/05/23 07:33:01;;;;;;;11.68;4.22;;;;;;;13.35;92.71;102086.97;4962576;28;20038;-76
2023/05/23 07:35:27;;;;;;;9.75;4.85;;;;;;;13.45;91.82;102094.72;4963796;28;20058;-73
2023/05/23 07:37:53;;;;;;;7.82;4.03;;;;;;;13.50;87.58;102099.53;4982961;28;20046;-72
2023/05/23 07:40:19;;;;;;;11.15;3.92;;;;;;;13.53;87.69;102091.13;4980737;28;20140;-75
2023/05/23 07:42:44;;;;;;;13.73;5.93;;;;;;;13.58;86.54;102072.63;4981192;28;20046;-75
2023/05/23 07:45:10;;;;;;;15.23;4.88;;;;;;;13.81;85.70;102099.34;4980504;28;20022;-73
2023/05/23 07:47:36;;;;;;;13.38;6.03;;;;;;;13.90;86.24;102092.00;4980104;28;20030;-71
2023/05/23 07:50:01;;;;;;;10.02;4.15;;;;;;;14.08;85.43;102091.59;4949601;28;20029;-72
2023/05/23 07:52:30;;;;;;;12.65;4.65;;;;;;;14.10;84.26;102090.38;4980743;28;20030;-74
2023/05/23 07:54:56;;;;;;;15.30;6.15;;;;;;;14.13;84.50;102105.28;4979585;28;20053;-71
2023/05/23 07:57:23;;;;;;;12.77;5.20;;;;;;;14.01;84.61;102105.75;4958010;28;20129;-71
2023/05/23 07:59:48;;;;;;;9.00;3.85;;;;;;;14.02;85.46;102106.59;4960357;28;20042;-70
2023/05/23 08:02:14;;;;;;;9.63;4.60;;;;;;;13.92;85.98;102106.88;4961348;28;20046;-68
2023/05/23 08:04:39;;;;;;;13.13;4.88;;;;;;;13.90;86.65;102111.59;4958909;28;20118;-72
2023/05/23 08:07:06;;;;;;;9.43;4.35;;;;;;;13.86;86.54;102118.38;4966660;28;20035;-72
2023/05/23 08:09:32;;;;;;;11.95;4.93;;;;;;;13.77;88.25;102114.13;4958739;28;20479;-72
2023/05/23 08:11:57;;;;;;;10.57;5.60;;;;;;;13.75;87.88;102114.31;4961303;28;20046;-72
2023/05/23 08:14:22;;;;;;;12.13;4.47;;;;;;;13.72;88.52;102113.84;4962289;28;20390;-72
2023/05/23 08:16:48;;;;;;;16.60;4.07;;;;;;;13.74;88.89;102118.00;4958150;28;20039;-72
2023/05/23 08:19:13;;;;;;;9.15;3.53;;;;;;;13.73;88.20;102124.41;4959852;28;20031;-72
2023/05/23 08:21:39;;;;;;;12.38;4.15;;;;;;;13.75;89.17;102129.56;4966062;28;20030;-72
2023/05/23 08:24:04;;;;;;;14.13;4.80;;;;;;;13.79;89.03;102126.31;4959413;28;20031;-72
2023/05/23 08:26:33;;;;;;;12.15;4.50;;;;;;;13.81;88.99;102116.25;4968105;28;20031;-72
2023/05/23 08:29:01;;;;;;;9.10;3.38;;;;;;;13.96;89.44;102120.75;4951191;28;20120;-72
2023/05/23 08:31:27;;;;;;;9.63;3.88;;;;;;;14.02;88.10;102120.84;4966455;28;20419;-72
2023/05/23 08:33:52;;;;;;;6.57;4.00;;;;;;;14.01;88.22;102115.66;4956841;28;20486;-71
2023/05/23 08:36:18;;;;;;;10.63;3.63;;;;;;;13.98;87.71;102130.28;4953400;28;20043;-72
2023/05/23 08:38:43;;;;;;;7.82;4.18;;;;;;;13.85;88.98;102124.75;4969934;28;20125;-72
2023/05/23 08:41:17;;;;;;;8.38;3.60;;;;;;;13.80;89.33;102130.66;4961176;28;20035;-72
2023/05/23 08:43:42;;;;;;;7.03;3.55;;;;;;;13.71;90.50;102134.47;4962107;28;20537;-72
2023/05/23 08:46:08;;;;;;;14.57;4.65;;;;;;;13.68;91.21;102129.50;4965963;28;20039;-72
2023/05/23 08:48:36;;;;;;;12.10;3.65;;;;;;;13.63;92.66;102136.44;4959591;28;20027;-72
2023/05/23 08:51:02;;;;;;;6.40;2.35;;;;;;;13.59;92.85;102142.13;4969294;28;20118;-72
2023/05/23 08:53:28;;;;;;;9.50;3.20;;;;;;;13.68;93.01;102128.66;4957574;28;20050;-72
2023/05/23 08:55:57;;;;;;;7.93;2.95;;;;;;;13.89;93.29;102150.19;4954351;28;20054;-72
2023/05/23 08:58:27;;;;;;;6.95;3.80;;;;;;;14.01;91.96;102147.84;4974505;28;20055;-71
2023/05/23 09:00:54;;;;;;;6.55;3.00;;;;;;;14.05;90.94;102146.47;4983403;28;20030;-72
2023/05/23 09:03:20;;;;;;;28.85;4.20;;;;;;;14.10;90.39;102149.41;4961214;28;20413;-72
2023/05/23 09:05:46;;;;;;;11.13;3.50;;;;;;;14.11;88.84;102150.25;4988681;28;20088;-72
2023/05/23 09:08:12;;;;;;;11.57;2.75;;;;;;;14.09;87.46;102160.31;4989850;28;20038;-72
2023/05/23 09:10:38;;;;;;;15.68;4.13;;;;;;;14.10;85.54;102157.47;4945145;28;20031;-72
2023/05/23 09:13:04;;;;;;;13.45;4.00;;;;;;;14.25;86.09;102160.94;4956389;28;20564;-72
2023/05/23 09:15:30;;;;;;;9.43;2.47;;;;;;;14.30;83.95;102151.47;4989949;28;20030;-72
2023/05/23 09:18:00;;;;;;;9.27;2.88;;;;;;;14.54;85.36;102159.22;4992746;28;20153;-72
2023/05/23 09:20:27;;;;;;;9.43;3.55;;;;;;;14.74;82.24;102164.78;4992568;28;20038;-72
2023/05/23 09:22:54;;;;;;;12.77;2.80;;;;;;;14.84;81.13;102167.97;4985670;28;20035;-72
2023/05/23 09:25:20;;;;;;;10.15;3.17;;;;;;;14.92;79.96;102169.72;4945550;28;20034;-72
2023/05/23 09:27:45;;;;;;;6.25;2.33;;;;;;;14.85;79.44;102163.44;4989198;28;20034;-72
2023/05/23 09:30:12;;;;;;;12.65;2.30;;;;;;;14.75;77.81;102170.97;4983020;28;20492;-72
2023/05/23 09:32:38;;;;;;;13.48;3.00;;;;;;;14.56;79.07;102169.75;4973422;28;20034;-72
2023/05/23 09:35:11;;;;;;;15.25;3.38;;;;;;;14.48;79.69;102174.19;4977131;28;20125;-72
2023/05/23 09:37:45;;;;;;;10.30;3.28;;;;;;;14.35;78.18;102171.38;4975273;28;20126;-72
2023/05/23 09:40:12;;;;;;;10.60;4.13;;;;;;;14.18;77.54;102176.13;4973474;28;20041;-72
2023/05/23 09:42:45;;;;;;;10.82;3.47;;;;;;;14.20;78.45;102181.28;4973641;28;20026;-72
2023/05/23 09:45:15;;;;;;;10.93;3.28;;;;;;;14.30;77.30;102176.47;4979310;28;20027;-72
2023/05/23 09:47:53;;;;;;;15.52;3.95;;;;;;;14.45;77.36;102171.06;4991003;28;20153;-72
2023/05/23 09:50:19;;;;;;;9.73;2.50;;;;;;;14.60;76.00;102179.13;4991477;28;20552;-72
2023/05/23 09:52:45;;;;;;;11.57;3.35;;;;;;;14.64;75.80;102164.28;4970415;28;20038;-72
2023/05/23 09:55:11;;;;;;;13.13;3.55;;;;;;;14.87;75.79;102178.34;4991645;28;20032;-72
2023/05/23 09:57:40;;;;;;;12.57;3.55;;;;;;;15.03;75.44;102177.25;4959355;28;20066;-72
2023/05/23 10:00:10;;;;;;;9.13;3.05;;;;;;;15.22;75.42;102177.59;4972253;28;20027;-72
2023/05/23 10:03:00;;;;;;;10.73;3.00;;;;;;;15.52;74.80;102179.06;4972441;28;20054;-72
2023/05/23 10:05:31;;;;;;;12.05;3.70;;;;;;;15.48;70.57;102179.66;4961367;28;20489;-72
2023/05/23 10:08:01;;;;;;;11.20;2.88;;;;;;;15.54;70.24;102176.19;4962900;28;20038;-72
2023/05/23 10:10:31;;;;;;;7.18;2.30;;;;;;;15.71;69.59;102174.84;4966184;28;20089;-72
2023/05/23 10:12:59;;;;;;;13.27;2.92;;;;;;;15.66;68.84;102176.44;4961158;28;20039;-72
2023/05/23 10:15:29;;;;;;;11.40;2.53;;;;;;;15.61;69.44;102171.66;4956431;28;20114;-72
2023/05/23 10:18:04;;;;;;;16.15;3.78;;;;;;;15.69;69.72;102171.56;4964860;28;20030;-72
2023/05/23 10:20:31;;;;;;;17.48;4.82;;;;;;;15.81;68.46;102173.69;4964326;28;20041;-72
2023/05/23 10:23:01;;;;;;;9.70;2.67;;;;;;;16.04;68.31;102179.59;4961852;28;20054;-72
2023/05/23 10:25:27;;;;;;;12.50;3.15;;;;;;;16.01;69.06;102174.63;4971750;28;20034;-72
2023/05/23 10:27:57;;;;;;;16.88;3.72;;;;;;;16.04;69.93;102176.91;4971916;28;20035;-72
2023/05/23 10:30:27;;;;;;;11.13;3.83;;;;;;;15.84;67.78;102173.28;4971780;28;21080;-72
2023/05/23 10:32:56;;;;;;;7.95;2.28;;;;;;;15.90;67.38;102186.78;4954016;28;20038;-72
2023/05/23 10:35:24;;;;;;;11.80;2.80;;;;;;;16.07;67.08;102187.25;4971837;28;20062;-71
2023/05/23 10:38:11;;;;;;;9.98;3.08;;;;;;;15.99;67.69;102182.06;4971518;28;20031;-73
2023/05/23 10:40:49;;;;;;;7.70;2.97;;;;;;;16.12;65.15;102181.28;4970196;28;20031;-72
2023/05/23 10:43:26;;;;;;;9.98;2.75;;;;;;;16.17;65.27;102174.25;4969223;28;20417;-71
2023/05/23 10:45:51;;;;;;;11.25;3.30;;;;;;;16.40;64.70;102182.00;4955410;28;20027;-72
2023/05/23 10:48:21;;;;;;;8.68;2.80;;;;;;;16.33;63.68;102172.25;4971337;28;20038;-72
2023/05/23 10:51:05;;;;;;;6.32;2.50;;;;;;;16.25;64.91;102169.75;4966886;28;20149;-72
2023/05/23 10:53:33;;;;;;;13.27;3.67;;;;;;;16.18;63.54;102177.78;4969477;28;20035;-73
2023/05/23 10:55:58;;;;;;;11.93;2.80;;;;;;;16.33;62.56;102174.94;4959442;28;20031;-72
2023/05/23 10:58:24;;;;;;;13.90;2.92;;;;;;;16.54;63.01;102182.03;4972520;28;20113;-74
2023/05/23 11:00:52;;;;;;;6.88;3.33;;;;;;;16.54;61.82;102168.56;4987485;28;20046;-74
2023/05/23 11:03:17;;;;;;;12.05;4.25;;;;;;;16.55;62.83;102162.16;4990606;28;20014;-75
2023/05/23 11:05:52;;;;;;;10.00;3.10;;;;;;;16.56;63.47;102171.91;4972921;28;20022;-75
2023/05/23 11:08:19;;;;;;;16.65;4.50;;;;;;;16.63;60.45;102160.06;4990670;28;20474;-74
2023/05/23 11:10:55;;;;;;;12.07;3.63;;;;;;;16.90;63.55;102176.34;4988322;28;20026;-74